Ever Lenient — 2HDF9 — position and weather

sailwx.info

Track history (hours):
 
Tides and Currents Weather Stations Pressure Air Temp Water Temp Dewpoint Dewpoint Depression Visibility Wind Speed Wind Dir Waves Ship Positions

Ever Lenient

Last reported at 2017-Nov-10 06:17 UTC. Time now 2017-Nov-24 00:20 UTC.
Position N 22°51' E 120°00'.
Warning: this ship's position is 13 days out of date.

Length 335 m; draft 10.8 m.

Type: Ship (hazmat cat D). MMSI: 235102677.

Date/timePositionNaut miles runAvg speedWind from/ knotsBaromVisibWave heightAir tempDewpointWater temp
2017-Nov-10 06:17N 22°51' E 120°00'413.4
2017-Nov-10 06:00N 22°48' E 120°03'713.8
2017-Nov-10 05:30N 22°42' E 120°07'714.1
2017-Nov-10 05:01N 22°36' E 120°11'611.9
2017-Nov-10 04:30N 22°33' E 120°16'3 5.3
2017-Nov-10 04:00N 22°33' E 120°19'0 0.2
2017-Nov-10 03:25N 22°33' E 120°19'0 0.0
2017-Nov-10 02:58N 22°33' E 120°19'0 0.1
2017-Nov-10 02:30N 22°33' E 120°19'0 0.0
2017-Nov-10 02:00N 22°33' E 120°19'0 0.0
2017-Nov-10 01:30N 22°33' E 120°19'0 0.0
2017-Nov-10 01:00N 22°33' E 120°19'0 0.0
2017-Nov-10 00:30N 22°33' E 120°19'0 0.0
2017-Nov-09 23:58N 22°33' E 120°19'0 0.0
2017-Nov-09 23:28N 22°33' E 120°19'0 0.0
2017-Nov-09 22:59N 22°33' E 120°19'0 0.0
2017-Nov-09 22:30N 22°33' E 120°19'0 0.0
2017-Nov-09 21:53N 22°33' E 120°19'0 0.0
2017-Nov-09 21:30N 22°33' E 120°19'0 0.0
2017-Nov-09 21:00N 22°33' E 120°19'0 0.0
2017-Nov-09 20:30N 22°33' E 120°19'0 0.0
2017-Nov-09 19:59N 22°33' E 120°19'0 0.0
2017-Nov-09 19:30N 22°33' E 120°19'0 0.0
2017-Nov-09 19:00N 22°33' E 120°19'0 0.0
2017-Nov-09 18:27N 22°33' E 120°19'0 0.0
2017-Nov-09 18:00N 22°33' E 120°19'0 0.0
2017-Nov-09 17:30N 22°33' E 120°19'0 0.0
2017-Nov-09 17:00N 22°33' E 120°19'0 0.0
2017-Nov-09 16:30N 22°33' E 120°19'0 0.0
2017-Nov-09 16:00N 22°33' E 120°19'0 0.0
2017-Nov-09 15:30N 22°33' E 120°19'0 0.0
2017-Nov-09 15:00N 22°33' E 120°19'0 0.0
2017-Nov-09 14:30N 22°33' E 120°19'1 1.5
2017-Nov-09 13:49N 22°33' E 120°18'3 8.0
2017-Nov-09 13:30N 22°32' E 120°15'1 2.3
2017-Nov-09 13:00N 22°31' E 120°15'0 0.2
2017-Nov-09 12:29N 22°31' E 120°15'0 0.2
2017-Nov-09 11:59N 22°31' E 120°15'0 0.0
2017-Nov-09 11:29N 22°31' E 120°15'0 0.0
2017-Nov-09 10:59N 22°31' E 120°15'0 0.0
2017-Nov-09 10:29N 22°31' E 120°15'0 0.0
2017-Nov-09 09:59N 22°31' E 120°15'0 0.1
2017-Nov-09 09:29N 22°31' E 120°15'0 0.1
2017-Nov-09 08:56N 22°31' E 120°15'0 0.0
2017-Nov-09 08:29N 22°31' E 120°15'0 0.1
2017-Nov-09 07:59N 22°31' E 120°15'0 0.0
2017-Nov-09 07:29N 22°31' E 120°15'0 0.0
2017-Nov-09 06:59N 22°31' E 120°15'0 0.0
2017-Nov-09 06:29N 22°31' E 120°15'0 0.0
2017-Nov-09 05:59N 22°31' E 120°15'0 0.0
2017-Nov-09 05:29N 22°31' E 120°15'0 0.0
2017-Nov-09 04:59N 22°31' E 120°15'0 0.0
2017-Nov-09 04:26N 22°31' E 120°15'0 0.0
2017-Nov-09 03:59N 22°31' E 120°15'0 0.1
2017-Nov-09 03:29N 22°31' E 120°15'0 0.0
2017-Nov-09 02:59N 22°31' E 120°15'0 0.0
2017-Nov-09 02:29N 22°31' E 120°15'0 0.0
2017-Nov-09 01:59N 22°31' E 120°15'0 0.0
2017-Nov-09 01:26N 22°31' E 120°15'0 0.0
2017-Nov-09 00:59N 22°31' E 120°15'0 0.0
2017-Nov-09 00:29N 22°31' E 120°15'0 0.0
2017-Nov-08 23:59N 22°31' E 120°15'0 0.0
2017-Nov-08 23:26N 22°31' E 120°15'0 0.0
2017-Nov-08 22:56N 22°31' E 120°15'0 0.0
2017-Nov-08 22:29N 22°31' E 120°15'0 0.0
2017-Nov-08 21:56N 22°31' E 120°15'0 0.0
2017-Nov-08 21:29N 22°31' E 120°15'0 0.0
2017-Nov-08 20:59N 22°31' E 120°15'0 0.0
2017-Nov-08 20:29N 22°31' E 120°15'0 0.1
2017-Nov-08 19:59N 22°31' E 120°15'0 0.0
2017-Nov-08 19:26N 22°31' E 120°15'0 0.1
2017-Nov-08 18:59N 22°31' E 120°14'0 0.0
2017-Nov-08 18:29N 22°31' E 120°14'0 0.0
2017-Nov-08 17:59N 22°31' E 120°14'0 0.1
2017-Nov-08 17:29N 22°31' E 120°15'0 0.0
2017-Nov-08 16:59N 22°31' E 120°15'0 0.0
2017-Nov-08 16:29N 22°31' E 120°15'0 0.0
2017-Nov-08 15:59N 22°31' E 120°15'0 0.0
2017-Nov-08 15:29N 22°31' E 120°15'0 0.0
2017-Nov-08 14:59N 22°31' E 120°15'0 0.1
2017-Nov-08 14:29N 22°31' E 120°15'0 0.0
2017-Nov-08 13:59N 22°31' E 120°15'0 0.0
2017-Nov-08 13:29N 22°31' E 120°15'0 0.0
2017-Nov-08 12:59N 22°31' E 120°15'0 0.0
2017-Nov-08 12:29N 22°31' E 120°15'0 0.0
2017-Nov-08 11:59N 22°31' E 120°15'0 0.0
2017-Nov-08 11:23N 22°31' E 120°15'0 0.0
2017-Nov-08 10:59N 22°31' E 120°15'0 0.0
2017-Nov-08 10:26N 22°31' E 120°15'0 0.0
2017-Nov-08 09:56N 22°31' E 120°15'0 0.0
2017-Nov-08 09:29N 22°31' E 120°15'0 0.0
2017-Nov-08 08:53N 22°31' E 120°15'0 0.0
2017-Nov-08 08:29N 22°31' E 120°15'0 0.0
2017-Nov-08 07:56N 22°31' E 120°15'0 0.0
2017-Nov-08 07:29N 22°31' E 120°15'0 0.1
2017-Nov-08 06:57N 22°31' E 120°15'0 0.6
2017-Nov-08 06:30N 22°31' E 120°15'4 8.5
2017-Nov-08 06:00N 22°31' E 120°10'713.4
2017-Nov-08 05:30N 22°31' E 120°03'713.2
2017-Nov-08 05:00N 22°31' E 119°56'26413.9
2017-Nov-07 10:01N 22°09' E 115°12'011.2
2017-Nov-07 10:00N 22°09' E 115°12'913.5
2017-Nov-07 09:19N 22°09' E 115°02'513.8
2017-Nov-07 08:58N 22°09' E 114°56'714.1
2017-Nov-07 08:30N 22°08' E 114°49'714.3
2017-Nov-07 08:00N 22°08' E 114°42'714.3
2017-Nov-07 07:30N 22°07' E 114°34'714.2
2017-Nov-07 07:00N 22°07' E 114°26'714.1
2017-Nov-07 06:30N 22°07' E 114°19'1112.6
2017-Nov-07 05:38N 22°13' E 114°09'1 9.8
2017-Nov-07 05:30N 22°14' E 114°08'913.5
2017-Nov-07 04:52N 22°22' E 114°04'513.4
2017-Nov-07 04:31N 22°21' E 113°59'611.3
2017-Nov-07 04:00N 22°23' E 113°54'4 7.0
2017-Nov-07 03:31N 22°27' E 113°53'0 0.6
2017-Nov-07 02:59N 22°27' E 113°53'0 0.0
2017-Nov-07 02:29N 22°27' E 113°53'0 0.0
2017-Nov-07 01:59N 22°27' E 113°53'0 0.0
2017-Nov-07 01:29N 22°27' E 113°53'0 0.1
2017-Nov-07 00:59N 22°27' E 113°53'0 0.1
2017-Nov-07 00:29N 22°27' E 113°53'0 0.0
2017-Nov-06 23:59N 22°27' E 113°53'0 0.0
2017-Nov-06 23:29N 22°27' E 113°53'0 0.0
2017-Nov-06 22:59N 22°27' E 113°53'0 0.0
2017-Nov-06 22:29N 22°27' E 113°53'0 0.0
2017-Nov-06 21:59N 22°27' E 113°53'0 0.0
2017-Nov-06 21:29N 22°27' E 113°53'0 0.0
2017-Nov-06 20:59N 22°27' E 113°53'0 0.0
2017-Nov-06 20:29N 22°27' E 113°53'  
2017-Nov-02 08:35N 01°16' E 104°08'216.2
2017-Nov-02 08:28N 01°16' E 104°06'715.8
2017-Nov-02 08:00N 01°14' E 103°59'815.2
2017-Nov-02 07:31N 01°11' E 103°52'815.4
2017-Nov-02 07:00N 01°07' E 103°45'714.8
2017-Nov-02 06:30N 01°03' E 103°39'714.0
2017-Nov-02 06:01N 01°06' E 103°33'713.1
2017-Nov-02 05:30N 01°13' E 103°32'4 6.9
2017-Nov-02 04:59N 01°16' E 103°33'4 8.9
2017-Nov-02 04:30N 01°21' E 103°33'0 0.5
2017-Nov-02 03:58N 01°21' E 103°33'0 0.0
2017-Nov-02 03:28N 01°21' E 103°33'0 0.0
2017-Nov-02 02:49N 01°21' E 103°33'0 0.0
2017-Nov-02 02:28N 01°21' E 103°33'0 0.0
2017-Nov-02 01:55N 01°21' E 103°33'0 0.0
2017-Nov-02 01:28N 01°21' E 103°33'0 0.0
2017-Nov-02 00:58N 01°21' E 103°33'0 0.0
2017-Nov-02 00:19N 01°21' E 103°33'0 0.0
2017-Nov-01 23:55N 01°21' E 103°33'0 0.0
2017-Nov-01 23:28N 01°21' E 103°33'0 0.0
2017-Nov-01 22:58N 01°21' E 103°33'0 0.0
2017-Nov-01 22:28N 01°21' E 103°33'0 0.0
2017-Nov-01 21:58N 01°21' E 103°33'0 0.0
2017-Nov-01 21:28N 01°21' E 103°33'0 0.0
2017-Nov-01 20:58N 01°21' E 103°33'0 0.0
2017-Nov-01 20:28N 01°21' E 103°33'0 0.0
2017-Nov-01 19:58N 01°21' E 103°33'0 0.0
2017-Nov-01 19:22N 01°21' E 103°33'0 0.0
2017-Nov-01 18:55N 01°21' E 103°33'0 0.0
2017-Nov-01 18:22N 01°21' E 103°33'12 0.8
2017-Nov-01 01:59N 01°13' E 103°23'510.9
2017-Nov-01 01:30N 01°16' E 103°19'  
Track history (hours):
 
Tides and Currents Weather Stations Pressure Air Temp Water Temp Dewpoint Dewpoint Depression Visibility Wind Speed Wind Dir Waves Ship Positions

Ever Lenient

Last reported at 2017-Nov-10 06:17 UTC. Time now 2017-Nov-24 00:20 UTC.
Position N 22°51' E 120°00'.
Warning: this ship's position is 13 days out of date.

Length 335 m; draft 10.8 m.

Type: Ship (hazmat cat D). MMSI: 235102677.

Date/timePositionNaut miles runAvg speedWind from/ knotsBaromVisibWave heightAir tempDewpointWater temp
2017-Nov-10 06:17N 22°51' E 120°00'413.4
2017-Nov-10 06:00N 22°48' E 120°03'713.8
2017-Nov-10 05:30N 22°42' E 120°07'714.1
2017-Nov-10 05:01N 22°36' E 120°11'611.9
2017-Nov-10 04:30N 22°33' E 120°16'3 5.3
2017-Nov-10 04:00N 22°33' E 120°19'0 0.2
2017-Nov-10 03:25N 22°33' E 120°19'0 0.0
2017-Nov-10 02:58N 22°33' E 120°19'0 0.1
2017-Nov-10 02:30N 22°33' E 120°19'0 0.0
2017-Nov-10 02:00N 22°33' E 120°19'0 0.0
2017-Nov-10 01:30N 22°33' E 120°19'0 0.0
2017-Nov-10 01:00N 22°33' E 120°19'0 0.0
2017-Nov-10 00:30N 22°33' E 120°19'0 0.0
2017-Nov-09 23:58N 22°33' E 120°19'0 0.0
2017-Nov-09 23:28N 22°33' E 120°19'0 0.0
2017-Nov-09 22:59N 22°33' E 120°19'0 0.0
2017-Nov-09 22:30N 22°33' E 120°19'0 0.0
2017-Nov-09 21:53N 22°33' E 120°19'0 0.0
2017-Nov-09 21:30N 22°33' E 120°19'0 0.0
2017-Nov-09 21:00N 22°33' E 120°19'0 0.0
2017-Nov-09 20:30N 22°33' E 120°19'0 0.0
2017-Nov-09 19:59N 22°33' E 120°19'0 0.0
2017-Nov-09 19:30N 22°33' E 120°19'0 0.0
2017-Nov-09 19:00N 22°33' E 120°19'0 0.0
2017-Nov-09 18:27N 22°33' E 120°19'0 0.0
2017-Nov-09 18:00N 22°33' E 120°19'0 0.0
2017-Nov-09 17:30N 22°33' E 120°19'0 0.0
2017-Nov-09 17:00N 22°33' E 120°19'0 0.0
2017-Nov-09 16:30N 22°33' E 120°19'0 0.0
2017-Nov-09 16:00N 22°33' E 120°19'0 0.0
2017-Nov-09 15:30N 22°33' E 120°19'0 0.0
2017-Nov-09 15:00N 22°33' E 120°19'0 0.0
2017-Nov-09 14:30N 22°33' E 120°19'1 1.5
2017-Nov-09 13:49N 22°33' E 120°18'3 8.0
2017-Nov-09 13:30N 22°32' E 120°15'1 2.3
2017-Nov-09 13:00N 22°31' E 120°15'0 0.2
2017-Nov-09 12:29N 22°31' E 120°15'0 0.2
2017-Nov-09 11:59N 22°31' E 120°15'0 0.0
2017-Nov-09 11:29N 22°31' E 120°15'0 0.0
2017-Nov-09 10:59N 22°31' E 120°15'0 0.0
2017-Nov-09 10:29N 22°31' E 120°15'0 0.0
2017-Nov-09 09:59N 22°31' E 120°15'0 0.1
2017-Nov-09 09:29N 22°31' E 120°15'0 0.1
2017-Nov-09 08:56N 22°31' E 120°15'0 0.0
2017-Nov-09 08:29N 22°31' E 120°15'0 0.1
2017-Nov-09 07:59N 22°31' E 120°15'0 0.0
2017-Nov-09 07:29N 22°31' E 120°15'0 0.0
2017-Nov-09 06:59N 22°31' E 120°15'0 0.0
2017-Nov-09 06:29N 22°31' E 120°15'0 0.0
2017-Nov-09 05:59N 22°31' E 120°15'0 0.0
2017-Nov-09 05:29N 22°31' E 120°15'0 0.0
2017-Nov-09 04:59N 22°31' E 120°15'0 0.0
2017-Nov-09 04:26N 22°31' E 120°15'0 0.0
2017-Nov-09 03:59N 22°31' E 120°15'0 0.1
2017-Nov-09 03:29N 22°31' E 120°15'0 0.0
2017-Nov-09 02:59N 22°31' E 120°15'0 0.0
2017-Nov-09 02:29N 22°31' E 120°15'0 0.0
2017-Nov-09 01:59N 22°31' E 120°15'0 0.0
2017-Nov-09 01:26N 22°31' E 120°15'0 0.0
2017-Nov-09 00:59N 22°31' E 120°15'0 0.0
2017-Nov-09 00:29N 22°31' E 120°15'0 0.0
2017-Nov-08 23:59N 22°31' E 120°15'0 0.0
2017-Nov-08 23:26N 22°31' E 120°15'0 0.0
2017-Nov-08 22:56N 22°31' E 120°15'0 0.0
2017-Nov-08 22:29N 22°31' E 120°15'0 0.0
2017-Nov-08 21:56N 22°31' E 120°15'0 0.0
2017-Nov-08 21:29N 22°31' E 120°15'0 0.0
2017-Nov-08 20:59N 22°31' E 120°15'0 0.0
2017-Nov-08 20:29N 22°31' E 120°15'0 0.1
2017-Nov-08 19:59N 22°31' E 120°15'0 0.0
2017-Nov-08 19:26N 22°31' E 120°15'0 0.1
2017-Nov-08 18:59N 22°31' E 120°14'0 0.0
2017-Nov-08 18:29N 22°31' E 120°14'0 0.0
2017-Nov-08 17:59N 22°31' E 120°14'0 0.1
2017-Nov-08 17:29N 22°31' E 120°15'0 0.0
2017-Nov-08 16:59N 22°31' E 120°15'0 0.0
2017-Nov-08 16:29N 22°31' E 120°15'0 0.0
2017-Nov-08 15:59N 22°31' E 120°15'0 0.0
2017-Nov-08 15:29N 22°31' E 120°15'0 0.0
2017-Nov-08 14:59N 22°31' E 120°15'0 0.1
2017-Nov-08 14:29N 22°31' E 120°15'0 0.0
2017-Nov-08 13:59N 22°31' E 120°15'0 0.0
2017-Nov-08 13:29N 22°31' E 120°15'0 0.0
2017-Nov-08 12:59N 22°31' E 120°15'0 0.0
2017-Nov-08 12:29N 22°31' E 120°15'0 0.0
2017-Nov-08 11:59N 22°31' E 120°15'0 0.0
2017-Nov-08 11:23N 22°31' E 120°15'0 0.0
2017-Nov-08 10:59N 22°31' E 120°15'0 0.0
2017-Nov-08 10:26N 22°31' E 120°15'0 0.0
2017-Nov-08 09:56N 22°31' E 120°15'0 0.0
2017-Nov-08 09:29N 22°31' E 120°15'0 0.0
2017-Nov-08 08:53N 22°31' E 120°15'0 0.0
2017-Nov-08 08:29N 22°31' E 120°15'0 0.0
2017-Nov-08 07:56N 22°31' E 120°15'0 0.0
2017-Nov-08 07:29N 22°31' E 120°15'0 0.1
2017-Nov-08 06:57N 22°31' E 120°15'0 0.6
2017-Nov-08 06:30N 22°31' E 120°15'4 8.5
2017-Nov-08 06:00N 22°31' E 120°10'713.4
2017-Nov-08 05:30N 22°31' E 120°03'713.2
2017-Nov-08 05:00N 22°31' E 119°56'26413.9
2017-Nov-07 10:01N 22°09' E 115°12'011.2
2017-Nov-07 10:00N 22°09' E 115°12'913.5
2017-Nov-07 09:19N 22°09' E 115°02'513.8
2017-Nov-07 08:58N 22°09' E 114°56'714.1
2017-Nov-07 08:30N 22°08' E 114°49'714.3
2017-Nov-07 08:00N 22°08' E 114°42'714.3
2017-Nov-07 07:30N 22°07' E 114°34'714.2
2017-Nov-07 07:00N 22°07' E 114°26'714.1
2017-Nov-07 06:30N 22°07' E 114°19'1112.6
2017-Nov-07 05:38N 22°13' E 114°09'1 9.8
2017-Nov-07 05:30N 22°14' E 114°08'913.5
2017-Nov-07 04:52N 22°22' E 114°04'513.4
2017-Nov-07 04:31N 22°21' E 113°59'611.3
2017-Nov-07 04:00N 22°23' E 113°54'4 7.0
2017-Nov-07 03:31N 22°27' E 113°53'0 0.6
2017-Nov-07 02:59N 22°27' E 113°53'0 0.0
2017-Nov-07 02:29N 22°27' E 113°53'0 0.0
2017-Nov-07 01:59N 22°27' E 113°53'0 0.0
2017-Nov-07 01:29N 22°27' E 113°53'0 0.1
2017-Nov-07 00:59N 22°27' E 113°53'0 0.1
2017-Nov-07 00:29N 22°27' E 113°53'0 0.0
2017-Nov-06 23:59N 22°27' E 113°53'0 0.0
2017-Nov-06 23:29N 22°27' E 113°53'0 0.0
2017-Nov-06 22:59N 22°27' E 113°53'0 0.0
2017-Nov-06 22:29N 22°27' E 113°53'0 0.0
2017-Nov-06 21:59N 22°27' E 113°53'0 0.0
2017-Nov-06 21:29N 22°27' E 113°53'0 0.0
2017-Nov-06 20:59N 22°27' E 113°53'0 0.0
2017-Nov-06 20:29N 22°27' E 113°53'  
2017-Nov-02 08:35N 01°16' E 104°08'216.2
2017-Nov-02 08:28N 01°16' E 104°06'715.8
2017-Nov-02 08:00N 01°14' E 103°59'815.2
2017-Nov-02 07:31N 01°11' E 103°52'815.4
2017-Nov-02 07:00N 01°07' E 103°45'714.8
2017-Nov-02 06:30N 01°03' E 103°39'714.0
2017-Nov-02 06:01N 01°06' E 103°33'713.1
2017-Nov-02 05:30N 01°13' E 103°32'4 6.9
2017-Nov-02 04:59N 01°16' E 103°33'4 8.9
2017-Nov-02 04:30N 01°21' E 103°33'0 0.5
2017-Nov-02 03:58N 01°21' E 103°33'0 0.0
2017-Nov-02 03:28N 01°21' E 103°33'0 0.0
2017-Nov-02 02:49N 01°21' E 103°33'0 0.0
2017-Nov-02 02:28N 01°21' E 103°33'0 0.0
2017-Nov-02 01:55N 01°21' E 103°33'0 0.0
2017-Nov-02 01:28N 01°21' E 103°33'0 0.0
2017-Nov-02 00:58N 01°21' E 103°33'0 0.0
2017-Nov-02 00:19N 01°21' E 103°33'0 0.0
2017-Nov-01 23:55N 01°21' E 103°33'0 0.0
2017-Nov-01 23:28N 01°21' E 103°33'0 0.0
2017-Nov-01 22:58N 01°21' E 103°33'0 0.0
2017-Nov-01 22:28N 01°21' E 103°33'0 0.0
2017-Nov-01 21:58N 01°21' E 103°33'0 0.0
2017-Nov-01 21:28N 01°21' E 103°33'0 0.0
2017-Nov-01 20:58N 01°21' E 103°33'0 0.0
2017-Nov-01 20:28N 01°21' E 103°33'0 0.0
2017-Nov-01 19:58N 01°21' E 103°33'0 0.0
2017-Nov-01 19:22N 01°21' E 103°33'0 0.0
2017-Nov-01 18:55N 01°21' E 103°33'0 0.0
2017-Nov-01 18:22N 01°21' E 103°33'12 0.8
2017-Nov-01 01:59N 01°13' E 103°23'510.9
2017-Nov-01 01:30N 01°16' E 103°19'  

Dump ship's entire track history